Time;durP1;ratioP1;P1;durP2;ratioP2;P2;SDS_P1;SDS_P2;PMS_P1;PMS_P2;Temp;Humidity;BMP_temperature;BMP_pressure;BME280_temperature;BME280_humidity;BME280_pressure;Samples;Min_cycle;Max_cycle;Signal;HPM_P1;HPM_P2
2021/12/09 00:03:36;;;;;;;99.10;36.20;;;-2.80;99.90;;;;;;10208323;29;20115;-87
2021/12/09 00:08:38;;;;;;;92.13;34.13;;;-2.80;99.90;;;;;;10209829;29;20024;-87
2021/12/09 00:13:38;;;;;;;96.23;36.70;;;-2.90;99.90;;;;;;10211194;29;20024;-87
2021/12/09 00:18:39;;;;;;;112.20;41.20;;;-2.90;99.90;;;;;;10209043;29;20479;-88
2021/12/09 00:23:40;;;;;;;122.97;44.70;;;-2.90;99.90;;;;;;10210526;29;20606;-88
2021/12/09 00:28:41;;;;;;;110.20;41.37;;;-2.90;99.90;;;;;;10211053;29;20028;-87
2021/12/09 00:33:44;;;;;;;100.00;41.07;;;-2.90;99.90;;;;;;10192570;29;20032;-87
2021/12/09 00:38:45;;;;;;;117.20;39.47;;;-2.80;99.90;;;;;;10203457;29;20067;-87
2021/12/09 00:43:46;;;;;;;157.67;53.30;;;-2.80;99.90;;;;;;10209273;29;20105;-88
2021/12/09 00:48:47;;;;;;;135.97;45.97;;;-2.80;99.90;;;;;;10209196;29;20044;-87
2021/12/09 00:53:48;;;;;;;116.30;41.63;;;-2.70;99.90;;;;;;10200773;29;20071;-87
2021/12/09 00:58:50;;;;;;;107.93;42.30;;;-2.70;99.90;;;;;;10209395;29;20051;-87
2021/12/09 01:03:51;;;;;;;97.07;37.97;;;-2.70;99.90;;;;;;10191431;29;20020;-87
2021/12/09 01:08:51;;;;;;;128.10;49.03;;;-2.60;99.90;;;;;;10197226;29;20098;-88
2021/12/09 01:13:52;;;;;;;136.13;49.73;;;-2.60;99.90;;;;;;10208498;29;20023;-87
2021/12/09 01:18:53;;;;;;;91.07;35.57;;;-2.60;99.90;;;;;;10207942;29;20578;-87
2021/12/09 01:23:54;;;;;;;100.90;37.00;;;-2.60;99.90;;;;;;10191876;29;20372;-88
2021/12/09 01:29:00;;;;;;;83.73;32.70;;;-2.60;99.90;;;;;;10191991;29;20043;-87
2021/12/09 01:34:03;;;;;;;93.80;34.57;;;-2.60;99.90;;;;;;10206297;29;20020;-87
2021/12/09 01:39:05;;;;;;;80.07;31.20;;;-2.70;99.90;;;;;;10206565;29;20030;-87
2021/12/09 01:44:06;;;;;;;81.57;29.63;;;-2.70;99.90;;;;;;10207924;29;20039;-88
2021/12/09 01:49:07;;;;;;;86.20;33.50;;;-2.70;99.90;;;;;;10206477;29;20048;-87
2021/12/09 01:54:08;;;;;;;84.20;34.17;;;-2.60;99.90;;;;;;10205208;29;20044;-87
2021/12/09 01:59:10;;;;;;;79.40;32.57;;;-2.60;99.90;;;;;;10205368;29;20698;-87
2021/12/09 02:04:12;;;;;;;98.93;39.13;;;-2.60;99.90;;;;;;10206251;29;20079;-87
2021/12/09 02:09:16;;;;;;;80.83;32.13;;;-2.60;99.90;;;;;;10175727;29;20083;-87
2021/12/09 02:14:17;;;;;;;75.93;30.80;;;-2.60;99.90;;;;;;10169879;29;20042;-87
2021/12/09 02:19:18;;;;;;;82.37;32.20;;;-2.60;99.90;;;;;;10182979;29;20452;-87
2021/12/09 02:24:18;;;;;;;91.30;33.80;;;-2.50;99.90;;;;;;10206853;29;20023;-86
2021/12/09 02:29:19;;;;;;;102.40;38.13;;;-2.50;99.90;;;;;;10205652;29;20035;-87
2021/12/09 02:34:20;;;;;;;99.27;37.77;;;-2.50;99.90;;;;;;10206157;29;20028;-87
2021/12/09 02:39:21;;;;;;;110.87;37.90;;;-2.50;99.90;;;;;;10169106;29;20040;-87
2021/12/09 02:44:23;;;;;;;105.30;38.20;;;-2.50;99.90;;;;;;10205118;29;20079;-87
2021/12/09 02:49:29;;;;;;;99.20;35.53;;;-2.40;99.90;;;;;;10201055;29;20052;-87
2021/12/09 02:54:30;;;;;;;123.17;40.43;;;-2.40;99.90;;;;;;10202053;29;20043;-87
2021/12/09 02:59:32;;;;;;;89.17;32.67;;;-2.40;99.90;;;;;;10206194;29;20042;-87
2021/12/09 03:04:43;;;;;;;95.53;34.53;;;-2.40;99.90;;;;;;10202733;29;20059;-86
2021/12/09 03:09:50;;;;;;;93.47;34.20;;;-2.40;99.90;;;;;;10180036;29;20032;-87
2021/12/09 03:14:51;;;;;;;150.43;48.43;;;-2.30;99.90;;;;;;10211327;29;20086;-87
2021/12/09 03:19:53;;;;;;;206.13;63.80;;;-2.30;99.90;;;;;;10212358;29;20102;-87
2021/12/09 03:24:54;;;;;;;344.07;98.83;;;-2.30;99.90;;;;;;10209509;29;20058;-87
2021/12/09 03:29:55;;;;;;;302.30;85.70;;;-2.30;99.90;;;;;;10209837;29;20206;-88
2021/12/09 03:34:56;;;;;;;268.50;77.77;;;-2.20;99.90;;;;;;10208850;29;20034;-87
2021/12/09 03:39:57;;;;;;;174.87;52.27;;;-2.20;99.90;;;;;;10212224;29;20030;-87
2021/12/09 03:44:58;;;;;;;273.90;71.27;;;-2.20;99.90;;;;;;10196903;29;20054;-87
2021/12/09 03:50:01;;;;;;;177.00;49.87;;;-2.10;99.90;;;;;;10209907;29;20047;-88
2021/12/09 03:55:02;;;;;;;101.83;33.13;;;-2.10;99.90;;;;;;10211521;29;20050;-87
2021/12/09 04:00:07;;;;;;;185.83;55.23;;;-2.20;99.90;;;;;;10210151;29;20030;-87
2021/12/09 04:05:09;;;;;;;139.23;45.93;;;-2.20;99.90;;;;;;10201150;29;20032;-87
2021/12/09 04:10:09;;;;;;;102.07;33.67;;;-2.10;99.90;;;;;;10210569;29;20492;-88
2021/12/09 04:15:11;;;;;;;146.50;44.50;;;-2.10;99.90;;;;;;10209724;29;20036;-85
2021/12/09 04:20:12;;;;;;;119.67;36.83;;;-2.10;99.90;;;;;;10208491;29;20024;-87
2021/12/09 04:25:12;;;;;;;126.67;38.13;;;-2.10;99.90;;;;;;10209338;29;20031;-87
2021/12/09 04:30:14;;;;;;;112.17;35.57;;;-2.10;99.90;;;;;;10209231;29;20515;-86
2021/12/09 04:35:15;;;;;;;127.20;39.33;;;-2.10;99.90;;;;;;10209437;29;20024;-85
2021/12/09 04:40:16;;;;;;;152.70;46.43;;;-2.10;99.90;;;;;;10209378;29;20023;-85
2021/12/09 04:45:17;;;;;;;156.83;50.37;;;-2.00;99.90;;;;;;10209287;29;20038;-87
2021/12/09 04:50:18;;;;;;;128.27;41.73;;;-2.00;99.90;;;;;;10208671;29;20043;-86
2021/12/09 04:55:19;;;;;;;110.47;40.97;;;-2.10;99.90;;;;;;10181275;29;20175;-84
2021/12/09 05:00:22;;;;;;;163.37;52.07;;;-2.00;99.90;;;;;;10206885;29;20558;-88
2021/12/09 05:05:23;;;;;;;87.57;31.30;;;-2.10;99.90;;;;;;10208039;29;20028;-86
2021/12/09 05:10:23;;;;;;;97.10;34.03;;;-2.10;99.90;;;;;;10202044;29;20392;-86
2021/12/09 05:15:24;;;;;;;126.20;42.97;;;-2.10;99.90;;;;;;10207476;29;20094;-87
2021/12/09 05:20:25;;;;;;;137.70;49.00;;;-2.10;99.90;;;;;;10208412;29;20046;-88
2021/12/09 05:25:26;;;;;;;84.50;28.63;;;-2.10;99.90;;;;;;10196842;29;20046;-83
2021/12/09 05:30:38;;;;;;;153.63;46.23;;;-2.10;99.90;;;;;;10202632;29;20825;-86
2021/12/09 05:35:39;;;;;;;93.57;33.17;;;-2.10;99.90;;;;;;10189182;29;20047;-84
2021/12/09 05:40:40;;;;;;;85.87;32.80;;;-2.10;99.90;;;;;;10206262;29;20043;-85
2021/12/09 05:45:42;;;;;;;91.37;31.20;;;-2.10;99.90;;;;;;10193976;29;20028;-85
2021/12/09 05:50:42;;;;;;;76.47;29.03;;;-2.10;99.90;;;;;;10202997;29;20110;-87
2021/12/09 05:55:44;;;;;;;73.47;28.30;;;-2.20;99.90;;;;;;10205992;29;20130;-86
2021/12/09 06:00:46;;;;;;;81.07;30.07;;;-2.20;99.90;;;;;;10206519;29;20116;-87
2021/12/09 06:05:48;;;;;;;80.13;30.57;;;-2.30;99.90;;;;;;10204383;29;20047;-85
2021/12/09 06:10:49;;;;;;;83.87;29.30;;;-2.20;99.90;;;;;;10213276;29;20036;-85
2021/12/09 06:15:50;;;;;;;89.00;29.23;;;-2.30;99.90;;;;;;10207518;29;20027;-86
2021/12/09 06:20:51;;;;;;;95.73;29.83;;;-2.30;99.90;;;;;;10197516;29;20062;-85
2021/12/09 06:25:51;;;;;;;89.40;29.07;;;-2.20;99.90;;;;;;10203630;29;20691;-86
2021/12/09 06:30:52;;;;;;;83.70;27.53;;;-2.20;99.90;;;;;;10205055;29;20047;-86
2021/12/09 06:35:53;;;;;;;80.63;28.70;;;-2.10;99.90;;;;;;10206418;29;20024;-85
2021/12/09 06:40:53;;;;;;;91.23;31.47;;;-2.10;99.90;;;;;;10205402;29;20487;-86
2021/12/09 06:45:58;;;;;;;93.73;32.87;;;-2.10;99.90;;;;;;10207129;29;20364;-86
2021/12/09 06:51:01;;;;;;;87.93;32.00;;;-2.00;99.90;;;;;;10213681;29;20127;-85
2021/12/09 06:56:04;;;;;;;85.37;31.20;;;-1.90;99.90;;;;;;10214320;29;20048;-86
2021/12/09 07:01:06;;;;;;;72.47;26.50;;;-2.00;99.90;;;;;;10212820;29;20030;-86
2021/12/09 07:06:08;;;;;;;68.57;24.57;;;-2.00;99.90;;;;;;10213939;29;20043;-86
2021/12/09 07:11:09;;;;;;;75.77;28.70;;;-2.00;99.90;;;;;;10213519;29;20471;-85
2021/12/09 07:16:10;;;;;;;73.40;26.57;;;-2.00;99.90;;;;;;10213405;29;20057;-86
2021/12/09 07:21:11;;;;;;;85.57;32.87;;;-1.90;99.90;;;;;;10213584;29;20027;-85
2021/12/09 07:26:12;;;;;;;80.33;31.73;;;-1.90;99.90;;;;;;10213485;29;20031;-85
2021/12/09 07:31:14;;;;;;;133.53;45.03;;;-1.80;99.90;;;;;;10212970;29;20031;-87
2021/12/09 07:36:14;;;;;;;197.70;76.73;;;-1.70;99.90;;;;;;10212917;29;20079;-85
2021/12/09 07:41:16;;;;;;;322.63;148.93;;;-1.60;99.90;;;;;;10211190;29;20090;-85
2021/12/09 07:46:17;;;;;;;293.77;112.87;;;-1.50;99.90;;;;;;10212422;29;20480;-85
2021/12/09 07:51:17;;;;;;;179.53;74.50;;;-1.40;99.90;;;;;;10210940;29;20066;-86
2021/12/09 07:56:19;;;;;;;315.37;124.77;;;-1.30;99.90;;;;;;10189887;29;20110;-85
2021/12/09 08:01:19;;;;;;;126.93;59.40;;;-1.20;99.90;;;;;;10171334;29;20024;-86
2021/12/09 08:06:20;;;;;;;112.73;51.20;;;-1.10;99.90;;;;;;10155575;29;20031;-86
2021/12/09 08:11:21;;;;;;;123.93;48.53;;;-1.00;99.90;;;;;;10171902;29;20044;-85
2021/12/09 08:16:23;;;;;;;139.33;50.53;;;-1.00;99.90;;;;;;10171426;29;20483;-85
2021/12/09 08:21:26;;;;;;;135.53;49.27;;;-0.90;99.90;;;;;;10171971;29;20039;-85
2021/12/09 08:26:27;;;;;;;134.63;49.67;;;-0.90;99.90;;;;;;10171707;29;20043;-86
2021/12/09 08:31:29;;;;;;;282.80;102.07;;;-0.80;99.90;;;;;;10171141;29;20376;-85
2021/12/09 08:36:30;;;;;;;114.87;46.50;;;-0.70;99.90;;;;;;10171420;29;20035;-84
2021/12/09 08:41:31;;;;;;;85.33;31.77;;;-0.70;99.90;;;;;;10171036;29;20028;-86
2021/12/09 08:46:32;;;;;;;68.17;27.63;;;-0.70;99.90;;;;;;10171251;29;20033;-85
2021/12/09 08:51:32;;;;;;;78.10;29.30;;;-0.40;99.90;;;;;;10170780;29;20036;-84
2021/12/09 08:56:34;;;;;;;83.43;30.87;;;-0.30;99.90;;;;;;10170652;29;20063;-85
2021/12/09 09:01:35;;;;;;;74.57;28.33;;;-0.30;99.90;;;;;;10170067;29;20028;-85
2021/12/09 09:06:36;;;;;;;74.47;29.70;;;-0.40;99.90;;;;;;10170026;29;20610;-85
2021/12/09 09:11:37;;;;;;;74.60;30.87;;;-0.50;99.90;;;;;;10169840;29;20062;-85
2021/12/09 09:16:41;;;;;;;76.07;29.83;;;-0.30;99.90;;;;;;10169624;29;20035;-84
2021/12/09 09:21:42;;;;;;;65.47;27.00;;;-0.10;99.90;;;;;;10170257;29;20029;-86
2021/12/09 09:26:43;;;;;;;57.77;24.60;;;0.00;99.90;;;;;;10169114;29;20024;-85
2021/12/09 09:31:44;;;;;;;79.77;32.33;;;0.20;99.90;;;;;;10169086;29;20034;-85
2021/12/09 09:36:45;;;;;;;88.03;33.40;;;0.30;99.90;;;;;;10168995;29;20028;-85
2021/12/09 09:41:56;;;;;;;95.17;37.80;;;0.40;99.90;;;;;;10168640;29;20052;-85
2021/12/09 09:46:59;;;;;;;67.57;28.17;;;0.60;99.90;;;;;;10168908;29;20469;-86
2021/12/09 09:52:00;;;;;;;64.87;25.00;;;0.60;99.90;;;;;;10168486;29;20036;-85
2021/12/09 09:57:01;;;;;;;77.97;31.17;;;0.50;99.90;;;;;;10183585;29;20484;-85
2021/12/09 10:02:03;;;;;;;77.53;32.00;;;0.60;99.90;;;;;;10207647;29;20020;-85
2021/12/09 10:07:05;;;;;;;64.03;25.87;;;0.60;99.90;;;;;;10207349;29;20028;-84
2021/12/09 10:12:07;;;;;;;76.57;29.43;;;0.60;99.90;;;;;;10207094;29;20541;-86
2021/12/09 10:17:17;;;;;;;78.87;33.87;;;0.50;99.90;;;;;;10207013;29;20091;-86
2021/12/09 10:22:25;;;;;;;282.60;195.60;;;0.50;99.90;;;;;;10211361;29;20038;-85
2021/12/09 10:27:29;;;;;;;131.90;82.53;;;0.50;99.90;;;;;;10214933;29;20387;-86
2021/12/09 10:32:34;;;;;;;277.43;193.60;;;0.60;99.90;;;;;;10215067;29;20106;-85
2021/12/09 10:37:38;;;;;;;464.73;304.13;;;0.60;99.90;;;;;;10214844;29;20034;-86
2021/12/09 10:42:46;;;;;;;464.80;330.67;;;0.50;99.90;;;;;;10214593;29;20082;-84
2021/12/09 10:48:06;;;;;;;348.57;235.77;;;0.50;99.90;;;;;;10214498;29;20058;-85
2021/12/09 10:58:27;;;;;;;222.53;114.77;;;0.50;99.90;;;;;;10175856;29;20055;-85
2021/12/09 11:03:40;;;;;;;75.23;34.37;;;0.50;99.90;;;;;;10174850;29;20131;-84
2021/12/09 11:08:41;;;;;;;72.20;33.43;;;0.60;99.90;;;;;;10174470;29;20021;-85
2021/12/09 11:13:45;;;;;;;61.67;24.63;;;0.60;99.90;;;;;;10173874;29;20380;-86
2021/12/09 11:18:46;;;;;;;61.77;25.57;;;0.50;99.90;;;;;;10174174;29;20083;-86
2021/12/09 11:23:59;;;;;;;58.07;23.13;;;0.40;99.90;;;;;;10173455;29;20036;-85
2021/12/09 11:29:06;;;;;;;56.13;24.10;;;0.20;99.90;;;;;;10173808;29;20040;-86
2021/12/09 11:34:13;;;;;;;57.73;23.13;;;0.20;99.90;;;;;;10172702;29;20036;-85
2021/12/09 11:39:27;;;;;;;59.20;24.43;;;0.30;99.90;;;;;;10173301;29;20024;-85
2021/12/09 11:44:28;;;;;;;65.40;27.97;;;0.40;99.90;;;;;;10173559;29;20024;-85
2021/12/09 11:49:28;;;;;;;62.63;24.90;;;0.40;99.90;;;;;;10156470;29;20028;-85
2021/12/09 11:54:29;;;;;;;55.17;22.83;;;0.40;99.90;;;;;;10172777;29;20086;-85
2021/12/09 12:15:57;;;;;;;92.17;35.63;;;0.50;99.90;;;;;;10171553;29;20776;-85
2021/12/09 12:42:15;;;;;;;82.13;32.10;;;0.20;99.90;;;;;;10171686;29;20032;-85
2021/12/09 12:47:28;;;;;;;81.97;32.40;;;0.20;99.90;;;;;;10170663;29;20020;-84
2021/12/09 12:52:31;;;;;;;76.00;31.80;;;0.20;99.90;;;;;;10170713;29;20476;-85
2021/12/09 12:57:36;;;;;;;74.37;31.07;;;0.30;99.90;;;;;;10172811;29;20095;-85
2021/12/09 13:13:30;;;;;;;110.77;47.43;;;0.10;99.90;;;;;;10169715;29;20036;-85
2021/12/09 13:24:22;;;;;;;82.50;33.33;;;0.10;99.90;;;;;;10164263;29;20047;-85
2021/12/09 13:29:38;;;;;;;440.60;242.60;;;0.00;99.90;;;;;;10148272;29;20040;-86
2021/12/09 13:35:04;;;;;;;500.63;260.42;;;-0.10;99.90;;;;;;10160238;29;20040;-84
2021/12/09 13:55:45;;;;;;;332.97;157.73;;;-0.30;99.90;;;;;;10146026;29;20112;-84
2021/12/09 14:00:47;;;;;;;88.80;37.63;;;-0.20;99.90;;;;;;10157298;29;20035;-82
2021/12/09 14:06:08;;;;;;;85.20;36.93;;;-0.30;99.90;;;;;;10184857;29;20033;-85
2021/12/09 14:11:20;;;;;;;74.97;31.60;;;-0.30;99.90;;;;;;10135070;29;20036;-83
2021/12/09 14:21:49;;;;;;;89.60;34.30;;;-0.40;99.90;;;;;;10100138;29;20072;-85
2021/12/09 14:26:57;;;;;;;81.80;31.83;;;-0.50;99.90;;;;;;10137288;29;20038;-85
2021/12/09 14:32:01;;;;;;;75.70;30.63;;;-0.50;99.90;;;;;;10162038;29;20111;-86
2021/12/09 14:37:03;;;;;;;79.00;31.97;;;-0.50;99.90;;;;;;10145672;29;20025;-86
2021/12/09 14:42:18;;;;;;;90.57;32.37;;;-0.60;99.90;;;;;;10135480;29;20056;-83
2021/12/09 14:47:19;;;;;;;93.07;35.13;;;-0.60;99.90;;;;;;10166172;29;20024;-84
2021/12/09 14:52:30;;;;;;;97.60;39.23;;;-0.60;99.90;;;;;;10150108;29;20036;-86
2021/12/09 14:57:31;;;;;;;107.13;41.10;;;-0.70;99.90;;;;;;10158840;29;20048;-84
2021/12/09 15:02:38;;;;;;;103.73;42.27;;;-0.70;99.90;;;;;;10154674;29;20032;-84
2021/12/09 15:07:48;;;;;;;113.27;44.50;;;-0.60;99.90;;;;;;10160670;29;20028;-84
2021/12/09 15:12:49;;;;;;;120.93;49.03;;;-0.70;99.90;;;;;;10173634;29;20079;-84
2021/12/09 15:18:02;;;;;;;117.53;46.63;;;-0.70;99.90;;;;;;10152391;29;20024;-84
2021/12/09 15:23:15;;;;;;;134.67;50.80;;;-0.70;99.90;;;;;;10163362;29;20394;-86
2021/12/09 15:28:18;;;;;;;134.30;50.27;;;-0.70;99.90;;;;;;10135186;29;20044;-88
2021/12/09 15:33:38;;;;;;;116.37;45.13;;;-0.60;99.90;;;;;;10144807;29;20461;-86
2021/12/09 15:38:41;;;;;;;132.90;47.83;;;-0.60;99.90;;;;;;10173068;29;20039;-86
2021/12/09 15:43:53;;;;;;;602.93;282.37;;;-0.60;99.90;;;;;;10165420;29;20032;-88
2021/12/09 15:48:53;;;;;;;97.90;43.17;;;-0.60;99.90;;;;;;10172867;29;20099;-86
2021/12/09 15:53:57;;;;;;;100.40;42.93;;;-0.60;99.90;;;;;;10170370;29;20468;-85
2021/12/09 15:58:59;;;;;;;207.87;96.87;;;-0.60;99.90;;;;;;10172462;29;20507;-85
2021/12/09 16:04:00;;;;;;;300.67;123.23;;;-0.50;99.90;;;;;;10164786;29;20028;-83
2021/12/09 16:09:02;;;;;;;311.50;121.43;;;-0.50;99.90;;;;;;10177711;29;20377;-83
2021/12/09 16:14:03;;;;;;;571.17;280.13;;;-0.50;99.90;;;;;;10142602;29;20492;-85
2021/12/09 16:19:04;;;;;;;123.77;52.60;;;-0.50;99.90;;;;;;10147460;29;20044;-85
2021/12/09 16:24:05;;;;;;;130.27;51.73;;;-0.50;99.90;;;;;;10144918;29;20465;-83
2021/12/09 16:29:06;;;;;;;181.53;73.53;;;-0.50;99.90;;;;;;10158027;29;20033;-85
2021/12/09 16:34:07;;;;;;;214.57;76.87;;;-0.50;99.90;;;;;;10163746;29;20106;-84
2021/12/09 16:39:09;;;;;;;144.50;63.37;;;-0.40;99.90;;;;;;10168560;29;20028;-84
2021/12/09 16:44:10;;;;;;;129.83;53.63;;;-0.40;99.90;;;;;;10167470;29;20531;-83
2021/12/09 16:49:13;;;;;;;171.53;65.93;;;-0.40;99.90;;;;;;10165885;29;20059;-84
2021/12/09 16:54:16;;;;;;;235.53;86.10;;;-0.40;99.90;;;;;;10165684;29;20040;-86
2021/12/09 16:59:25;;;;;;;154.93;63.37;;;-0.40;99.90;;;;;;10165055;29;20036;-84
2021/12/09 17:04:27;;;;;;;199.27;75.50;;;-0.40;99.90;;;;;;10147841;29;20042;-84
2021/12/09 17:09:29;;;;;;;190.80;73.00;;;-0.40;99.90;;;;;;10161861;29;20040;-84
2021/12/09 17:14:31;;;;;;;152.93;56.83;;;-0.30;99.90;;;;;;10160693;29;20036;-84
2021/12/09 17:19:34;;;;;;;123.20;46.00;;;-0.30;99.90;;;;;;10158274;29;20025;-84
2021/12/09 17:24:35;;;;;;;131.67;46.93;;;-0.40;99.90;;;;;;10144067;29;20016;-86
2021/12/09 17:29:37;;;;;;;165.50;56.60;;;-0.40;99.90;;;;;;10164200;29;20054;-85
2021/12/09 17:34:38;;;;;;;177.90;54.83;;;-0.40;99.90;;;;;;10166366;29;20028;-86
2021/12/09 17:39:41;;;;;;;144.73;53.60;;;-0.40;99.90;;;;;;10169134;29;20539;-85
2021/12/09 17:44:42;;;;;;;130.77;50.73;;;-0.50;99.90;;;;;;10168660;29;20035;-85
2021/12/09 17:50:08;;;;;;;144.97;55.23;;;-0.50;99.90;;;;;;10139374;29;20560;-86
2021/12/09 17:55:10;;;;;;;147.38;53.95;;;-0.60;99.90;;;;;;10166617;28;20063;-85
2021/12/09 18:00:15;;;;;;;131.33;50.33;;;-0.60;99.90;;;;;;10155422;29;20024;-85
2021/12/09 18:11:18;;;;;;;109.03;41.97;;;-0.60;99.90;;;;;;10167138;29;20044;-86
2021/12/09 18:16:40;;;;;;;119.73;42.93;;;-0.70;99.90;;;;;;10164883;29;20467;-86
2021/12/09 18:21:42;;;;;;;113.47;41.10;;;-0.70;99.90;;;;;;10166813;29;20032;-85
2021/12/09 18:26:43;;;;;;;112.20;42.97;;;-0.70;99.90;;;;;;10160212;29;20023;-85
2021/12/09 18:38:14;;;;;;;108.50;41.63;;;-0.80;99.90;;;;;;10160054;29;20027;-86
2021/12/09 18:43:17;;;;;;;113.70;39.23;;;-0.80;99.90;;;;;;10152715;29;20031;-86
2021/12/09 18:48:45;;;;;;;99.37;38.27;;;-0.80;99.90;;;;;;10149014;29;20373;-86
2021/12/09 18:53:48;;;;;;;107.53;40.57;;;-0.80;99.90;;;;;;10156420;29;20469;-85
2021/12/09 18:58:50;;;;;;;121.77;45.97;;;-0.80;99.90;;;;;;10156939;29;20035;-87
2021/12/09 19:03:51;;;;;;;116.07;45.03;;;-0.80;99.90;;;;;;10154857;29;20047;-87
2021/12/09 19:08:54;;;;;;;126.47;47.30;;;-0.80;99.90;;;;;;10161546;29;20452;-86
2021/12/09 19:26:25;;;;;;;110.87;41.63;;;-0.70;99.90;;;;;;10164039;29;20061;-88
2021/12/09 19:31:42;;;;;;;110.43;42.77;;;-0.70;99.90;;;;;;10162236;29;20447;-87
2021/12/09 19:36:45;;;;;;;113.63;43.40;;;-0.80;99.90;;;;;;10156386;29;20060;-86
2021/12/09 19:41:46;;;;;;;175.90;51.90;;;-0.80;99.90;;;;;;10152390;29;20043;-87
2021/12/09 19:46:47;;;;;;;130.33;47.17;;;-0.80;99.90;;;;;;10171727;29;20055;-87
2021/12/09 19:51:47;;;;;;;114.53;43.27;;;-0.80;99.90;;;;;;10171004;29;20068;-86
2021/12/09 19:56:57;;;;;;;245.00;76.17;;;-0.80;99.90;;;;;;10166896;29;20134;-85
2021/12/09 20:01:58;;;;;;;1526.67;435.80;;;-0.80;99.90;;;;;;10153494;29;20058;-87
2021/12/09 20:06:59;;;;;;;646.93;241.20;;;-0.80;99.90;;;;;;10163594;29;20115;-88
2021/12/09 20:12:00;;;;;;;285.47;90.27;;;-0.90;99.90;;;;;;10169855;29;20047;-86
2021/12/09 20:17:02;;;;;;;171.67;60.53;;;-0.90;99.90;;;;;;10157262;29;20036;-86
2021/12/09 20:22:04;;;;;;;650.10;229.40;;;-0.90;99.90;;;;;;10166605;29;20028;-85
2021/12/09 20:27:05;;;;;;;1102.97;330.00;;;-0.80;99.90;;;;;;10169312;29;20024;-88
2021/12/09 20:32:06;;;;;;;262.20;97.47;;;-0.90;99.90;;;;;;10160009;29;20449;-85
2021/12/09 20:37:07;;;;;;;303.03;106.40;;;-0.90;99.90;;;;;;10162943;29;20036;-87
2021/12/09 20:42:09;;;;;;;204.87;81.90;;;-0.90;99.90;;;;;;10162682;29;20024;-90
2021/12/09 20:47:09;;;;;;;146.47;55.60;;;-0.90;99.90;;;;;;10147729;29;20036;-85
2021/12/09 20:52:10;;;;;;;136.43;51.57;;;-0.80;99.90;;;;;;10132970;29;20055;-85
2021/12/09 20:57:11;;;;;;;257.43;110.07;;;-0.80;99.90;;;;;;10157081;29;20108;-85
2021/12/09 21:02:12;;;;;;;173.37;64.17;;;-0.80;99.90;;;;;;10144538;29;20469;-84
2021/12/09 21:07:13;;;;;;;331.73;124.80;;;-0.80;99.90;;;;;;10164631;29;20031;-86
2021/12/09 21:12:14;;;;;;;451.17;153.73;;;-0.80;99.90;;;;;;10157379;29;20040;-87
2021/12/09 21:17:16;;;;;;;389.70;124.83;;;-0.80;99.90;;;;;;10154146;29;20469;-87
2021/12/09 21:22:17;;;;;;;266.97;109.67;;;-0.80;99.90;;;;;;10161041;29;20102;-86
2021/12/09 21:27:18;;;;;;;146.17;58.57;;;-0.80;99.90;;;;;;10174143;29;20094;-84
2021/12/09 21:32:20;;;;;;;139.23;56.57;;;-0.70;99.90;;;;;;10168835;29;20040;-85
2021/12/09 21:37:23;;;;;;;120.20;51.50;;;-0.80;99.90;;;;;;10136621;29;20031;-86
2021/12/09 21:42:23;;;;;;;108.90;44.27;;;-0.80;99.90;;;;;;10150256;29;20032;-85
2021/12/09 21:47:24;;;;;;;102.57;41.90;;;-0.70;99.90;;;;;;10155737;29;20038;-85
2021/12/09 21:52:25;;;;;;;109.63;39.73;;;-0.70;99.90;;;;;;10162135;29;20428;-86
2021/12/09 21:57:26;;;;;;;136.00;53.97;;;-0.70;99.90;;;;;;10162427;29;20392;-85
2021/12/09 22:02:29;;;;;;;131.00;52.53;;;-0.70;99.90;;;;;;10168578;29;20027;-85
2021/12/09 22:07:31;;;;;;;131.73;52.27;;;-0.70;99.90;;;;;;10150728;29;20443;-85
2021/12/09 22:12:33;;;;;;;117.50;48.37;;;-0.70;99.90;;;;;;10167932;29;20036;-85
2021/12/09 22:17:33;;;;;;;151.57;56.83;;;-0.70;99.90;;;;;;10137889;29;20068;-85
2021/12/09 22:22:34;;;;;;;153.60;60.33;;;-0.70;99.90;;;;;;10180437;29;20063;-84
2021/12/09 22:27:36;;;;;;;157.90;62.07;;;-0.70;99.90;;;;;;10180349;29;20036;-85
2021/12/09 22:32:37;;;;;;;147.40;56.93;;;-0.60;99.90;;;;;;10179923;29;20043;-85
2021/12/09 22:37:38;;;;;;;135.10;49.17;;;-0.60;99.90;;;;;;10180675;29;20074;-85
2021/12/09 22:42:39;;;;;;;124.17;44.87;;;-0.60;99.90;;;;;;10165159;29;20115;-85
2021/12/09 22:47:43;;;;;;;116.13;42.90;;;-0.60;99.90;;;;;;10179788;29;20042;-84
2021/12/09 22:52:45;;;;;;;136.27;58.43;;;-0.60;99.90;;;;;;10175348;29;20481;-85
2021/12/09 22:57:46;;;;;;;149.73;61.30;;;-0.60;99.90;;;;;;10178507;29;20083;-85
2021/12/09 23:02:47;;;;;;;117.07;43.93;;;-0.60;99.90;;;;;;10178865;29;20028;-85
2021/12/09 23:07:47;;;;;;;114.90;43.43;;;-0.60;99.90;;;;;;10180184;29;20111;-85
2021/12/09 23:12:48;;;;;;;132.20;50.97;;;-0.60;99.90;;;;;;10180016;29;20572;-85
2021/12/09 23:17:53;;;;;;;154.83;59.27;;;-0.60;99.90;;;;;;10178431;29;20468;-84
2021/12/09 23:22:54;;;;;;;133.97;46.70;;;-0.60;99.90;;;;;;10178131;29;20034;-85
2021/12/09 23:27:55;;;;;;;126.90;47.93;;;-0.60;99.90;;;;;;10178674;29;20351;-85
2021/12/09 23:32:55;;;;;;;122.53;45.03;;;-0.60;99.90;;;;;;10172860;29;20393;-85
2021/12/09 23:37:56;;;;;;;129.23;50.87;;;-0.60;99.90;;;;;;10171531;29;20038;-85
2021/12/09 23:42:56;;;;;;;146.50;55.70;;;-0.60;99.90;;;;;;10157632;29;20032;-85
2021/12/09 23:47:57;;;;;;;135.10;48.83;;;-0.60;99.90;;;;;;10155793;29;20032;-85
2021/12/09 23:52:58;;;;;;;134.53;50.27;;;-0.70;99.90;;;;;;10138521;29;20508;-85
2021/12/09 23:57:59;;;;;;;135.03;50.30;;;-0.60;99.90;;;;;;10198663;29;20048;-85
